sensor_id;sensor_type;location;lat;lon;timestamp;P1;durP1;ratioP1;P2;durP2;ratioP2
56373;SDS011;58212;47.034;7.376;2022-10-16T00:01:33;8.55;;;1.85;;
56373;SDS011;58212;47.034;7.376;2022-10-16T00:04:01;3.13;;;1.48;;
56373;SDS011;58212;47.034;7.376;2022-10-16T00:06:29;5.53;;;1.13;;
56373;SDS011;58212;47.034;7.376;2022-10-16T00:08:58;2.60;;;1.20;;
56373;SDS011;58212;47.034;7.376;2022-10-16T00:11:26;6.80;;;1.10;;
56373;SDS011;58212;47.034;7.376;2022-10-16T00:13:57;5.90;;;1.30;;
56373;SDS011;58212;47.034;7.376;2022-10-16T00:16:25;6.75;;;1.38;;
56373;SDS011;58212;47.034;7.376;2022-10-16T00:18:53;9.05;;;1.52;;
56373;SDS011;58212;47.034;7.376;2022-10-16T00:21:21;17.35;;;1.88;;
56373;SDS011;58212;47.034;7.376;2022-10-16T00:23:50;6.00;;;1.60;;
56373;SDS011;58212;47.034;7.376;2022-10-16T00:26:18;9.27;;;1.80;;
56373;SDS011;58212;47.034;7.376;2022-10-16T00:28:46;6.57;;;1.65;;
56373;SDS011;58212;47.034;7.376;2022-10-16T00:31:15;5.65;;;1.55;;
56373;SDS011;58212;47.034;7.376;2022-10-16T00:33:43;4.43;;;1.42;;
56373;SDS011;58212;47.034;7.376;2022-10-16T00:36:14;6.40;;;1.90;;
56373;SDS011;58212;47.034;7.376;2022-10-16T00:38:42;2.80;;;1.48;;
56373;SDS011;58212;47.034;7.376;2022-10-16T00:41:11;5.57;;;1.42;;
56373;SDS011;58212;47.034;7.376;2022-10-16T00:43:40;3.78;;;1.38;;
56373;SDS011;58212;47.034;7.376;2022-10-16T00:46:15;4.03;;;1.10;;
56373;SDS011;58212;47.034;7.376;2022-10-16T00:48:45;3.10;;;1.15;;
56373;SDS011;58212;47.034;7.376;2022-10-16T00:51:17;3.90;;;1.52;;
56373;SDS011;58212;47.034;7.376;2022-10-16T00:53:49;3.20;;;1.33;;
56373;SDS011;58212;47.034;7.376;2022-10-16T00:56:16;6.28;;;1.73;;
56373;SDS011;58212;47.034;7.376;2022-10-16T00:58:44;3.30;;;1.30;;
56373;SDS011;58212;47.034;7.376;2022-10-16T01:01:11;2.25;;;1.30;;
56373;SDS011;58212;47.034;7.376;2022-10-16T01:03:40;6.15;;;1.45;;
56373;SDS011;58212;47.034;7.376;2022-10-16T01:06:21;2.88;;;1.40;;
56373;SDS011;58212;47.034;7.376;2022-10-16T01:08:57;4.85;;;1.30;;
56373;SDS011;58212;47.034;7.376;2022-10-16T01:11:31;6.20;;;1.55;;
56373;SDS011;58212;47.034;7.376;2022-10-16T01:14:02;5.15;;;1.40;;
56373;SDS011;58212;47.034;7.376;2022-10-16T01:16:37;4.03;;;1.40;;
56373;SDS011;58212;47.034;7.376;2022-10-16T01:19:12;3.03;;;1.33;;
56373;SDS011;58212;47.034;7.376;2022-10-16T01:21:43;3.83;;;1.40;;
56373;SDS011;58212;47.034;7.376;2022-10-16T01:24:15;6.10;;;1.58;;
56373;SDS011;58212;47.034;7.376;2022-10-16T01:27:06;7.38;;;1.92;;
56373;SDS011;58212;47.034;7.376;2022-10-16T01:29:37;7.45;;;1.80;;
56373;SDS011;58212;47.034;7.376;2022-10-16T01:32:10;5.38;;;1.20;;
56373;SDS011;58212;47.034;7.376;2022-10-16T01:34:44;5.85;;;1.48;;
56373;SDS011;58212;47.034;7.376;2022-10-16T01:37:16;3.97;;;1.30;;
56373;SDS011;58212;47.034;7.376;2022-10-16T01:39:51;4.07;;;1.40;;
56373;SDS011;58212;47.034;7.376;2022-10-16T01:42:24;7.15;;;1.55;;
56373;SDS011;58212;47.034;7.376;2022-10-16T01:44:55;7.18;;;1.40;;
56373;SDS011;58212;47.034;7.376;2022-10-16T01:47:25;4.85;;;1.23;;
56373;SDS011;58212;47.034;7.376;2022-10-16T01:49:56;7.32;;;1.42;;
56373;SDS011;58212;47.034;7.376;2022-10-16T01:52:26;4.40;;;1.25;;
56373;SDS011;58212;47.034;7.376;2022-10-16T01:54:55;4.60;;;1.20;;
56373;SDS011;58212;47.034;7.376;2022-10-16T01:57:25;5.82;;;1.30;;
56373;SDS011;58212;47.034;7.376;2022-10-16T01:59:56;8.15;;;1.50;;
56373;SDS011;58212;47.034;7.376;2022-10-16T02:02:37;4.53;;;1.10;;
56373;SDS011;58212;47.034;7.376;2022-10-16T02:05:08;6.57;;;1.50;;
56373;SDS011;58212;47.034;7.376;2022-10-16T02:07:40;7.47;;;1.52;;
56373;SDS011;58212;47.034;7.376;2022-10-16T02:10:07;3.38;;;1.42;;
56373;SDS011;58212;47.034;7.376;2022-10-16T02:12:36;4.78;;;1.40;;
56373;SDS011;58212;47.034;7.376;2022-10-16T02:15:07;8.00;;;1.38;;
56373;SDS011;58212;47.034;7.376;2022-10-16T02:17:34;4.78;;;1.15;;
56373;SDS011;58212;47.034;7.376;2022-10-16T02:20:04;6.05;;;1.27;;
56373;SDS011;58212;47.034;7.376;2022-10-16T02:22:32;5.53;;;1.35;;
56373;SDS011;58212;47.034;7.376;2022-10-16T02:25:05;4.22;;;1.10;;
56373;SDS011;58212;47.034;7.376;2022-10-16T02:27:38;4.40;;;1.15;;
56373;SDS011;58212;47.034;7.376;2022-10-16T02:30:10;6.45;;;1.20;;
56373;SDS011;58212;47.034;7.376;2022-10-16T02:32:41;4.60;;;1.30;;
56373;SDS011;58212;47.034;7.376;2022-10-16T02:35:11;4.70;;;1.60;;
56373;SDS011;58212;47.034;7.376;2022-10-16T02:37:38;7.90;;;1.13;;
56373;SDS011;58212;47.034;7.376;2022-10-16T02:40:07;4.25;;;1.00;;
56373;SDS011;58212;47.034;7.376;2022-10-16T02:42:38;2.78;;;1.25;;
56373;SDS011;58212;47.034;7.376;2022-10-16T02:45:07;6.78;;;1.30;;
56373;SDS011;58212;47.034;7.376;2022-10-16T02:47:36;6.47;;;1.48;;
56373;SDS011;58212;47.034;7.376;2022-10-16T02:50:04;5.25;;;1.30;;
56373;SDS011;58212;47.034;7.376;2022-10-16T02:52:31;3.13;;;1.35;;
56373;SDS011;58212;47.034;7.376;2022-10-16T02:54:59;7.65;;;1.33;;
56373;SDS011;58212;47.034;7.376;2022-10-16T02:57:26;4.57;;;1.20;;
56373;SDS011;58212;47.034;7.376;2022-10-16T02:59:54;7.18;;;1.40;;
56373;SDS011;58212;47.034;7.376;2022-10-16T03:02:21;8.80;;;1.38;;
56373;SDS011;58212;47.034;7.376;2022-10-16T03:04:49;8.07;;;1.23;;
56373;SDS011;58212;47.034;7.376;2022-10-16T03:07:16;3.28;;;1.17;;
56373;SDS011;58212;47.034;7.376;2022-10-16T03:09:43;6.57;;;1.15;;
56373;SDS011;58212;47.034;7.376;2022-10-16T03:12:10;5.53;;;1.20;;
56373;SDS011;58212;47.034;7.376;2022-10-16T03:14:37;4.30;;;1.15;;
56373;SDS011;58212;47.034;7.376;2022-10-16T03:17:06;10.88;;;1.35;;
56373;SDS011;58212;47.034;7.376;2022-10-16T03:19:33;3.40;;;1.05;;
56373;SDS011;58212;47.034;7.376;2022-10-16T03:22:01;3.50;;;1.23;;
56373;SDS011;58212;47.034;7.376;2022-10-16T03:24:28;4.68;;;1.13;;
56373;SDS011;58212;47.034;7.376;2022-10-16T03:26:55;5.43;;;1.20;;
56373;SDS011;58212;47.034;7.376;2022-10-16T03:29:22;4.50;;;1.10;;
56373;SDS011;58212;47.034;7.376;2022-10-16T03:31:51;8.57;;;1.52;;
56373;SDS011;58212;47.034;7.376;2022-10-16T03:34:19;3.53;;;1.13;;
56373;SDS011;58212;47.034;7.376;2022-10-16T03:36:46;4.50;;;1.35;;
56373;SDS011;58212;47.034;7.376;2022-10-16T03:39:13;6.15;;;1.30;;
56373;SDS011;58212;47.034;7.376;2022-10-16T03:41:40;5.40;;;1.05;;
56373;SDS011;58212;47.034;7.376;2022-10-16T03:44:07;6.07;;;1.20;;
56373;SDS011;58212;47.034;7.376;2022-10-16T03:46:34;6.32;;;1.08;;
56373;SDS011;58212;47.034;7.376;2022-10-16T03:49:01;5.53;;;1.35;;
56373;SDS011;58212;47.034;7.376;2022-10-16T03:51:30;5.97;;;1.20;;
56373;SDS011;58212;47.034;7.376;2022-10-16T03:53:57;6.18;;;1.40;;
56373;SDS011;58212;47.034;7.376;2022-10-16T03:56:25;6.13;;;1.08;;
56373;SDS011;58212;47.034;7.376;2022-10-16T03:58:52;11.07;;;1.55;;
56373;SDS011;58212;47.034;7.376;2022-10-16T04:01:19;2.83;;;0.80;;
56373;SDS011;58212;47.034;7.376;2022-10-16T04:03:46;4.20;;;1.10;;
56373;SDS011;58212;47.034;7.376;2022-10-16T04:06:13;3.55;;;1.10;;
56373;SDS011;58212;47.034;7.376;2022-10-16T04:08:43;7.20;;;1.10;;
56373;SDS011;58212;47.034;7.376;2022-10-16T04:11:10;3.35;;;1.27;;
56373;SDS011;58212;47.034;7.376;2022-10-16T04:13:38;5.38;;;1.13;;
56373;SDS011;58212;47.034;7.376;2022-10-16T04:16:05;6.78;;;1.45;;
56373;SDS011;58212;47.034;7.376;2022-10-16T04:18:32;7.30;;;1.52;;
56373;SDS011;58212;47.034;7.376;2022-10-16T04:21:02;4.35;;;1.08;;
56373;SDS011;58212;47.034;7.376;2022-10-16T04:23:29;3.67;;;0.98;;
56373;SDS011;58212;47.034;7.376;2022-10-16T04:25:58;9.68;;;1.30;;
56373;SDS011;58212;47.034;7.376;2022-10-16T04:28:25;3.38;;;1.20;;
56373;SDS011;58212;47.034;7.376;2022-10-16T04:30:52;4.85;;;1.30;;
56373;SDS011;58212;47.034;7.376;2022-10-16T04:33:19;7.65;;;1.13;;
56373;SDS011;58212;47.034;7.376;2022-10-16T04:35:46;3.80;;;1.52;;
56373;SDS011;58212;47.034;7.376;2022-10-16T04:38:14;6.13;;;1.55;;
56373;SDS011;58212;47.034;7.376;2022-10-16T04:40:41;6.55;;;1.35;;
56373;SDS011;58212;47.034;7.376;2022-10-16T04:43:10;6.00;;;1.35;;
56373;SDS011;58212;47.034;7.376;2022-10-16T04:45:37;6.63;;;1.30;;
56373;SDS011;58212;47.034;7.376;2022-10-16T04:48:04;7.97;;;1.33;;
56373;SDS011;58212;47.034;7.376;2022-10-16T04:50:31;7.20;;;1.27;;
56373;SDS011;58212;47.034;7.376;2022-10-16T04:53:04;1.45;;;0.98;;
56373;SDS011;58212;47.034;7.376;2022-10-16T04:55:31;5.18;;;1.48;;
56373;SDS011;58212;47.034;7.376;2022-10-16T04:57:58;5.88;;;1.63;;
56373;SDS011;58212;47.034;7.376;2022-10-16T05:00:26;7.18;;;1.20;;
56373;SDS011;58212;47.034;7.376;2022-10-16T05:02:55;8.05;;;1.10;;
56373;SDS011;58212;47.034;7.376;2022-10-16T05:05:24;5.75;;;1.20;;
56373;SDS011;58212;47.034;7.376;2022-10-16T05:07:51;8.07;;;1.23;;
56373;SDS011;58212;47.034;7.376;2022-10-16T05:10:19;3.92;;;1.30;;
56373;SDS011;58212;47.034;7.376;2022-10-16T05:12:46;2.05;;;0.80;;
56373;SDS011;58212;47.034;7.376;2022-10-16T05:15:13;3.55;;;0.85;;
56373;SDS011;58212;47.034;7.376;2022-10-16T05:17:41;3.08;;;0.90;;
56373;SDS011;58212;47.034;7.376;2022-10-16T05:20:09;2.63;;;1.33;;
56373;SDS011;58212;47.034;7.376;2022-10-16T05:22:36;2.95;;;1.13;;
56373;SDS011;58212;47.034;7.376;2022-10-16T05:25:03;2.03;;;0.90;;
56373;SDS011;58212;47.034;7.376;2022-10-16T05:27:31;3.88;;;1.52;;
56373;SDS011;58212;47.034;7.376;2022-10-16T05:29:58;5.40;;;1.25;;
56373;SDS011;58212;47.034;7.376;2022-10-16T05:32:25;6.53;;;1.17;;
56373;SDS011;58212;47.034;7.376;2022-10-16T05:34:53;3.25;;;0.82;;
56373;SDS011;58212;47.034;7.376;2022-10-16T05:37:20;3.60;;;1.30;;
56373;SDS011;58212;47.034;7.376;2022-10-16T05:39:47;7.07;;;1.30;;
56373;SDS011;58212;47.034;7.376;2022-10-16T05:42:14;6.28;;;1.30;;
56373;SDS011;58212;47.034;7.376;2022-10-16T05:44:41;2.65;;;1.00;;
56373;SDS011;58212;47.034;7.376;2022-10-16T05:47:08;6.85;;;1.30;;
56373;SDS011;58212;47.034;7.376;2022-10-16T05:49:36;4.65;;;1.15;;
56373;SDS011;58212;47.034;7.376;2022-10-16T05:52:04;3.28;;;0.98;;
56373;SDS011;58212;47.034;7.376;2022-10-16T05:54:31;5.80;;;1.20;;
56373;SDS011;58212;47.034;7.376;2022-10-16T05:56:59;3.03;;;1.30;;
56373;SDS011;58212;47.034;7.376;2022-10-16T05:59:27;4.50;;;1.38;;
56373;SDS011;58212;47.034;7.376;2022-10-16T06:01:54;13.88;;;1.45;;
56373;SDS011;58212;47.034;7.376;2022-10-16T06:04:21;7.20;;;1.17;;
56373;SDS011;58212;47.034;7.376;2022-10-16T06:06:49;5.53;;;1.45;;
56373;SDS011;58212;47.034;7.376;2022-10-16T06:09:17;5.13;;;1.20;;
56373;SDS011;58212;47.034;7.376;2022-10-16T06:11:44;6.38;;;1.20;;
56373;SDS011;58212;47.034;7.376;2022-10-16T06:14:12;9.63;;;1.10;;
56373;SDS011;58212;47.034;7.376;2022-10-16T06:16:39;11.55;;;1.30;;
56373;SDS011;58212;47.034;7.376;2022-10-16T06:19:06;4.28;;;0.82;;
56373;SDS011;58212;47.034;7.376;2022-10-16T06:21:34;8.25;;;1.40;;
56373;SDS011;58212;47.034;7.376;2022-10-16T06:24:01;8.10;;;1.52;;
56373;SDS011;58212;47.034;7.376;2022-10-16T06:26:30;6.72;;;1.08;;
56373;SDS011;58212;47.034;7.376;2022-10-16T06:28:58;4.70;;;1.23;;
56373;SDS011;58212;47.034;7.376;2022-10-16T06:31:26;6.55;;;1.25;;
56373;SDS011;58212;47.034;7.376;2022-10-16T06:33:56;9.60;;;1.45;;
56373;SDS011;58212;47.034;7.376;2022-10-16T06:36:24;5.57;;;1.23;;
56373;SDS011;58212;47.034;7.376;2022-10-16T06:38:52;3.80;;;1.00;;
56373;SDS011;58212;47.034;7.376;2022-10-16T06:41:20;2.03;;;1.10;;
56373;SDS011;58212;47.034;7.376;2022-10-16T06:43:50;4.05;;;1.15;;
56373;SDS011;58212;47.034;7.376;2022-10-16T06:46:20;4.57;;;1.20;;
56373;SDS011;58212;47.034;7.376;2022-10-16T06:48:49;4.05;;;0.90;;
56373;SDS011;58212;47.034;7.376;2022-10-16T06:51:17;3.40;;;0.93;;
56373;SDS011;58212;47.034;7.376;2022-10-16T06:53:48;3.67;;;0.88;;
56373;SDS011;58212;47.034;7.376;2022-10-16T06:56:16;3.85;;;0.90;;
56373;SDS011;58212;47.034;7.376;2022-10-16T06:58:45;2.42;;;0.80;;
56373;SDS011;58212;47.034;7.376;2022-10-16T07:01:15;6.55;;;1.35;;
56373;SDS011;58212;47.034;7.376;2022-10-16T07:03:44;2.70;;;0.75;;
56373;SDS011;58212;47.034;7.376;2022-10-16T07:06:13;7.93;;;1.13;;
56373;SDS011;58212;47.034;7.376;2022-10-16T07:08:43;4.07;;;1.10;;
56373;SDS011;58212;47.034;7.376;2022-10-16T07:11:12;2.38;;;1.08;;
56373;SDS011;58212;47.034;7.376;2022-10-16T07:13:41;4.70;;;1.15;;
56373;SDS011;58212;47.034;7.376;2022-10-16T07:16:10;5.30;;;0.90;;
56373;SDS011;58212;47.034;7.376;2022-10-16T07:18:40;5.55;;;1.33;;
56373;SDS011;58212;47.034;7.376;2022-10-16T07:21:10;4.50;;;0.98;;
56373;SDS011;58212;47.034;7.376;2022-10-16T07:23:39;7.40;;;0.93;;
56373;SDS011;58212;47.034;7.376;2022-10-16T07:26:06;6.38;;;1.45;;
56373;SDS011;58212;47.034;7.376;2022-10-16T07:28:34;5.30;;;1.20;;
56373;SDS011;58212;47.034;7.376;2022-10-16T07:31:01;4.57;;;0.88;;
56373;SDS011;58212;47.034;7.376;2022-10-16T07:33:29;3.60;;;1.00;;
56373;SDS011;58212;47.034;7.376;2022-10-16T07:35:58;4.95;;;1.05;;
56373;SDS011;58212;47.034;7.376;2022-10-16T07:38:25;5.35;;;0.90;;
56373;SDS011;58212;47.034;7.376;2022-10-16T07:40:56;5.28;;;0.93;;
56373;SDS011;58212;47.034;7.376;2022-10-16T07:43:24;5.10;;;1.30;;
56373;SDS011;58212;47.034;7.376;2022-10-16T07:45:51;11.80;;;1.08;;
56373;SDS011;58212;47.034;7.376;2022-10-16T07:48:20;4.03;;;1.08;;
56373;SDS011;58212;47.034;7.376;2022-10-16T07:50:50;6.07;;;1.00;;
56373;SDS011;58212;47.034;7.376;2022-10-16T07:53:18;3.35;;;0.90;;
56373;SDS011;58212;47.034;7.376;2022-10-16T07:55:45;6.30;;;1.17;;
56373;SDS011;58212;47.034;7.376;2022-10-16T07:58:14;5.65;;;0.77;;
56373;SDS011;58212;47.034;7.376;2022-10-16T08:00:41;4.97;;;0.93;;
56373;SDS011;58212;47.034;7.376;2022-10-16T08:03:08;8.95;;;1.10;;
56373;SDS011;58212;47.034;7.376;2022-10-16T08:05:35;3.75;;;0.90;;
56373;SDS011;58212;47.034;7.376;2022-10-16T08:08:05;3.30;;;0.60;;
56373;SDS011;58212;47.034;7.376;2022-10-16T08:10:33;3.28;;;0.80;;
56373;SDS011;58212;47.034;7.376;2022-10-16T08:13:01;3.40;;;0.73;;
56373;SDS011;58212;47.034;7.376;2022-10-16T08:15:28;4.45;;;1.08;;
56373;SDS011;58212;47.034;7.376;2022-10-16T08:17:56;5.10;;;1.10;;
56373;SDS011;58212;47.034;7.376;2022-10-16T08:20:24;4.47;;;0.93;;
56373;SDS011;58212;47.034;7.376;2022-10-16T08:22:52;5.05;;;0.98;;
56373;SDS011;58212;47.034;7.376;2022-10-16T08:25:20;4.82;;;0.80;;
56373;SDS011;58212;47.034;7.376;2022-10-16T08:27:50;3.75;;;0.80;;
56373;SDS011;58212;47.034;7.376;2022-10-16T08:30:17;3.08;;;0.98;;
56373;SDS011;58212;47.034;7.376;2022-10-16T08:32:49;2.30;;;1.00;;
56373;SDS011;58212;47.034;7.376;2022-10-16T08:35:19;3.80;;;0.95;;
56373;SDS011;58212;47.034;7.376;2022-10-16T08:37:47;1.58;;;0.73;;
56373;SDS011;58212;47.034;7.376;2022-10-16T08:40:16;6.50;;;0.93;;
56373;SDS011;58212;47.034;7.376;2022-10-16T08:43:00;4.80;;;1.05;;
56373;SDS011;58212;47.034;7.376;2022-10-16T08:45:51;4.18;;;1.13;;
56373;SDS011;58212;47.034;7.376;2022-10-16T08:48:35;1.85;;;1.02;;
56373;SDS011;58212;47.034;7.376;2022-10-16T08:51:10;1.70;;;1.00;;
56373;SDS011;58212;47.034;7.376;2022-10-16T08:53:43;3.05;;;1.08;;
56373;SDS011;58212;47.034;7.376;2022-10-16T08:56:15;4.28;;;1.00;;
56373;SDS011;58212;47.034;7.376;2022-10-16T08:58:48;2.97;;;1.02;;
56373;SDS011;58212;47.034;7.376;2022-10-16T09:01:17;3.50;;;0.93;;
56373;SDS011;58212;47.034;7.376;2022-10-16T09:03:55;3.40;;;0.90;;
56373;SDS011;58212;47.034;7.376;2022-10-16T09:06:52;1.83;;;0.93;;
56373;SDS011;58212;47.034;7.376;2022-10-16T09:09:31;2.13;;;0.80;;
56373;SDS011;58212;47.034;7.376;2022-10-16T09:12:10;1.40;;;0.90;;
56373;SDS011;58212;47.034;7.376;2022-10-16T09:14:43;1.02;;;0.93;;
56373;SDS011;58212;47.034;7.376;2022-10-16T09:17:22;3.42;;;1.00;;
56373;SDS011;58212;47.034;7.376;2022-10-16T09:20:01;4.20;;;1.30;;
56373;SDS011;58212;47.034;7.376;2022-10-16T09:22:50;1.00;;;0.90;;
56373;SDS011;58212;47.034;7.376;2022-10-16T09:25:21;4.20;;;1.30;;
56373;SDS011;58212;47.034;7.376;2022-10-16T09:27:48;2.33;;;1.40;;
56373;SDS011;58212;47.034;7.376;2022-10-16T09:30:20;1.45;;;1.10;;
56373;SDS011;58212;47.034;7.376;2022-10-16T09:32:49;1.35;;;0.90;;
56373;SDS011;58212;47.034;7.376;2022-10-16T09:35:19;4.90;;;1.55;;
56373;SDS011;58212;47.034;7.376;2022-10-16T09:37:49;2.42;;;1.10;;
56373;SDS011;58212;47.034;7.376;2022-10-16T09:40:24;2.72;;;1.15;;
56373;SDS011;58212;47.034;7.376;2022-10-16T09:42:55;1.30;;;1.00;;
56373;SDS011;58212;47.034;7.376;2022-10-16T09:45:28;1.67;;;1.33;;
56373;SDS011;58212;47.034;7.376;2022-10-16T09:47:56;3.30;;;1.02;;
56373;SDS011;58212;47.034;7.376;2022-10-16T09:50:23;2.67;;;0.90;;
56373;SDS011;58212;47.034;7.376;2022-10-16T09:53:02;4.47;;;1.20;;
56373;SDS011;58212;47.034;7.376;2022-10-16T09:55:30;4.93;;;1.23;;
56373;SDS011;58212;47.034;7.376;2022-10-16T09:57:58;2.30;;;1.52;;
56373;SDS011;58212;47.034;7.376;2022-10-16T10:00:25;5.32;;;2.00;;
56373;SDS011;58212;47.034;7.376;2022-10-16T10:02:54;3.78;;;2.58;;
56373;SDS011;58212;47.034;7.376;2022-10-16T10:05:21;4.25;;;2.30;;
56373;SDS011;58212;47.034;7.376;2022-10-16T10:07:53;4.35;;;2.70;;
56373;SDS011;58212;47.034;7.376;2022-10-16T10:10:23;3.35;;;2.95;;
56373;SDS011;58212;47.034;7.376;2022-10-16T10:12:52;4.80;;;3.58;;
56373;SDS011;58212;47.034;7.376;2022-10-16T10:15:19;4.32;;;3.78;;
56373;SDS011;58212;47.034;7.376;2022-10-16T10:17:49;4.30;;;3.88;;
56373;SDS011;58212;47.034;7.376;2022-10-16T10:20:24;4.65;;;3.42;;
56373;SDS011;58212;47.034;7.376;2022-10-16T10:22:54;6.15;;;2.63;;
56373;SDS011;58212;47.034;7.376;2022-10-16T10:25:26;6.07;;;2.90;;
56373;SDS011;58212;47.034;7.376;2022-10-16T10:31:13;8.40;;;3.38;;
56373;SDS011;58212;47.034;7.376;2022-10-16T10:33:49;5.72;;;2.72;;
56373;SDS011;58212;47.034;7.376;2022-10-16T10:36:29;4.13;;;2.70;;
56373;SDS011;58212;47.034;7.376;2022-10-16T10:39:00;4.93;;;2.83;;
56373;SDS011;58212;47.034;7.376;2022-10-16T10:44:34;4.97;;;2.83;;
56373;SDS011;58212;47.034;7.376;2022-10-16T10:47:16;4.57;;;2.85;;
56373;SDS011;58212;47.034;7.376;2022-10-16T10:49:56;6.20;;;3.40;;
56373;SDS011;58212;47.034;7.376;2022-10-16T10:52:38;4.35;;;2.20;;
56373;SDS011;58212;47.034;7.376;2022-10-16T10:55:20;3.22;;;1.70;;
56373;SDS011;58212;47.034;7.376;2022-10-16T10:58:00;2.25;;;1.90;;
56373;SDS011;58212;47.034;7.376;2022-10-16T11:00:42;1.90;;;1.42;;
56373;SDS011;58212;47.034;7.376;2022-10-16T11:03:24;2.40;;;1.30;;
56373;SDS011;58212;47.034;7.376;2022-10-16T11:06:02;3.50;;;1.58;;
56373;SDS011;58212;47.034;7.376;2022-10-16T11:08:37;2.35;;;1.40;;
56373;SDS011;58212;47.034;7.376;2022-10-16T11:11:09;1.60;;;1.17;;
56373;SDS011;58212;47.034;7.376;2022-10-16T11:13:44;3.25;;;1.60;;
56373;SDS011;58212;47.034;7.376;2022-10-16T11:16:19;5.53;;;1.33;;
56373;SDS011;58212;47.034;7.376;2022-10-16T11:18:52;1.70;;;1.15;;
56373;SDS011;58212;47.034;7.376;2022-10-16T11:21:26;3.88;;;1.35;;
56373;SDS011;58212;47.034;7.376;2022-10-16T11:24:00;2.53;;;1.70;;
56373;SDS011;58212;47.034;7.376;2022-10-16T11:26:32;3.88;;;1.23;;
56373;SDS011;58212;47.034;7.376;2022-10-16T11:29:02;4.53;;;1.50;;
56373;SDS011;58212;47.034;7.376;2022-10-16T11:31:32;1.70;;;1.27;;
56373;SDS011;58212;47.034;7.376;2022-10-16T11:34:05;1.27;;;1.10;;
56373;SDS011;58212;47.034;7.376;2022-10-16T11:36:42;2.65;;;1.27;;
56373;SDS011;58212;47.034;7.376;2022-10-16T11:39:20;2.13;;;1.10;;
56373;SDS011;58212;47.034;7.376;2022-10-16T11:41:50;3.40;;;1.10;;
56373;SDS011;58212;47.034;7.376;2022-10-16T11:44:24;1.98;;;1.23;;
56373;SDS011;58212;47.034;7.376;2022-10-16T11:47:03;3.85;;;1.30;;
56373;SDS011;58212;47.034;7.376;2022-10-16T11:49:39;1.65;;;1.23;;
56373;SDS011;58212;47.034;7.376;2022-10-16T11:52:10;1.40;;;1.25;;
56373;SDS011;58212;47.034;7.376;2022-10-16T11:54:45;1.95;;;1.30;;
56373;SDS011;58212;47.034;7.376;2022-10-16T11:57:17;2.88;;;1.20;;
56373;SDS011;58212;47.034;7.376;2022-10-16T11:59:51;2.92;;;2.10;;
56373;SDS011;58212;47.034;7.376;2022-10-16T12:05:22;2.88;;;1.40;;
56373;SDS011;58212;47.034;7.376;2022-10-16T12:08:00;3.33;;;1.27;;
56373;SDS011;58212;47.034;7.376;2022-10-16T12:10:38;3.63;;;1.33;;
56373;SDS011;58212;47.034;7.376;2022-10-16T12:16:04;3.13;;;1.08;;
56373;SDS011;58212;47.034;7.376;2022-10-16T12:18:33;4.07;;;1.33;;
56373;SDS011;58212;47.034;7.376;2022-10-16T12:21:01;2.00;;;1.25;;
56373;SDS011;58212;47.034;7.376;2022-10-16T12:23:31;3.78;;;1.30;;
56373;SDS011;58212;47.034;7.376;2022-10-16T12:26:01;2.78;;;1.20;;
56373;SDS011;58212;47.034;7.376;2022-10-16T12:28:28;2.17;;;1.42;;
56373;SDS011;58212;47.034;7.376;2022-10-16T12:30:58;5.13;;;1.33;;
56373;SDS011;58212;47.034;7.376;2022-10-16T12:33:30;3.45;;;1.33;;
56373;SDS011;58212;47.034;7.376;2022-10-16T12:36:00;4.93;;;1.30;;
56373;SDS011;58212;47.034;7.376;2022-10-16T12:38:30;4.32;;;1.17;;
56373;SDS011;58212;47.034;7.376;2022-10-16T12:41:04;3.00;;;1.33;;
56373;SDS011;58212;47.034;7.376;2022-10-16T12:43:38;6.82;;;1.63;;
56373;SDS011;58212;47.034;7.376;2022-10-16T12:46:21;3.45;;;1.40;;
56373;SDS011;58212;47.034;7.376;2022-10-16T12:48:50;4.10;;;1.23;;
56373;SDS011;58212;47.034;7.376;2022-10-16T12:51:22;1.30;;;1.15;;
56373;SDS011;58212;47.034;7.376;2022-10-16T12:53:59;3.38;;;1.33;;
56373;SDS011;58212;47.034;7.376;2022-10-16T12:56:31;2.33;;;1.27;;
56373;SDS011;58212;47.034;7.376;2022-10-16T12:59:09;1.83;;;1.33;;
56373;SDS011;58212;47.034;7.376;2022-10-16T13:01:46;3.10;;;1.25;;
56373;SDS011;58212;47.034;7.376;2022-10-16T13:07:17;1.92;;;1.48;;
56373;SDS011;58212;47.034;7.376;2022-10-16T13:09:58;4.30;;;1.30;;
56373;SDS011;58212;47.034;7.376;2022-10-16T13:12:41;2.50;;;1.40;;
56373;SDS011;58212;47.034;7.376;2022-10-16T13:15:28;1.65;;;1.50;;
56373;SDS011;58212;47.034;7.376;2022-10-16T13:18:07;6.82;;;2.13;;
56373;SDS011;58212;47.034;7.376;2022-10-16T13:20:44;5.85;;;1.65;;
56373;SDS011;58212;47.034;7.376;2022-10-16T13:23:23;5.07;;;1.70;;
56373;SDS011;58212;47.034;7.376;2022-10-16T13:25:59;2.28;;;1.50;;
56373;SDS011;58212;47.034;7.376;2022-10-16T13:28:36;6.50;;;1.70;;
56373;SDS011;58212;47.034;7.376;2022-10-16T13:31:04;6.95;;;1.92;;
56373;SDS011;58212;47.034;7.376;2022-10-16T13:33:37;3.40;;;1.58;;
56373;SDS011;58212;47.034;7.376;2022-10-16T13:36:06;15.30;;;2.22;;
56373;SDS011;58212;47.034;7.376;2022-10-16T13:38:33;10.30;;;1.90;;
56373;SDS011;58212;47.034;7.376;2022-10-16T13:41:02;5.57;;;1.65;;
56373;SDS011;58212;47.034;7.376;2022-10-16T13:43:31;8.65;;;1.95;;
56373;SDS011;58212;47.034;7.376;2022-10-16T13:46:04;6.93;;;1.67;;
56373;SDS011;58212;47.034;7.376;2022-10-16T13:48:33;7.47;;;1.92;;
56373;SDS011;58212;47.034;7.376;2022-10-16T13:51:01;65.70;;;6.53;;
56373;SDS011;58212;47.034;7.376;2022-10-16T13:53:30;99.55;;;9.98;;
56373;SDS011;58212;47.034;7.376;2022-10-16T13:55:59;15.82;;;2.28;;
56373;SDS011;58212;47.034;7.376;2022-10-16T13:58:28;11.57;;;2.20;;
56373;SDS011;58212;47.034;7.376;2022-10-16T14:00:56;13.38;;;2.20;;
56373;SDS011;58212;47.034;7.376;2022-10-16T14:03:26;6.05;;;1.80;;
56373;SDS011;58212;47.034;7.376;2022-10-16T14:05:55;9.85;;;1.85;;
56373;SDS011;58212;47.034;7.376;2022-10-16T14:08:25;9.23;;;1.77;;
56373;SDS011;58212;47.034;7.376;2022-10-16T14:10:54;8.93;;;2.15;;
56373;SDS011;58212;47.034;7.376;2022-10-16T14:13:26;8.40;;;2.03;;
56373;SDS011;58212;47.034;7.376;2022-10-16T14:16:02;6.43;;;1.77;;
56373;SDS011;58212;47.034;7.376;2022-10-16T14:18:34;10.20;;;2.38;;
56373;SDS011;58212;47.034;7.376;2022-10-16T14:21:04;10.68;;;2.03;;
56373;SDS011;58212;47.034;7.376;2022-10-16T14:23:32;11.52;;;2.08;;
56373;SDS011;58212;47.034;7.376;2022-10-16T14:26:14;7.38;;;1.80;;
56373;SDS011;58212;47.034;7.376;2022-10-16T14:28:46;10.40;;;1.92;;
56373;SDS011;58212;47.034;7.376;2022-10-16T14:31:26;7.63;;;2.08;;
56373;SDS011;58212;47.034;7.376;2022-10-16T14:33:58;14.40;;;2.40;;
56373;SDS011;58212;47.034;7.376;2022-10-16T14:36:26;6.13;;;2.20;;
56373;SDS011;58212;47.034;7.376;2022-10-16T14:38:57;12.20;;;2.20;;
56373;SDS011;58212;47.034;7.376;2022-10-16T14:41:26;9.63;;;2.10;;
56373;SDS011;58212;47.034;7.376;2022-10-16T14:43:55;11.57;;;2.28;;
56373;SDS011;58212;47.034;7.376;2022-10-16T14:46:28;10.02;;;2.45;;
56373;SDS011;58212;47.034;7.376;2022-10-16T14:49:00;8.18;;;2.15;;
56373;SDS011;58212;47.034;7.376;2022-10-16T14:51:31;15.52;;;2.75;;
56373;SDS011;58212;47.034;7.376;2022-10-16T14:53:58;14.05;;;2.65;;
56373;SDS011;58212;47.034;7.376;2022-10-16T14:56:28;10.80;;;2.20;;
56373;SDS011;58212;47.034;7.376;2022-10-16T14:58:57;11.20;;;2.10;;
56373;SDS011;58212;47.034;7.376;2022-10-16T15:01:24;11.73;;;2.35;;
56373;SDS011;58212;47.034;7.376;2022-10-16T15:03:53;8.13;;;1.92;;
56373;SDS011;58212;47.034;7.376;2022-10-16T15:06:24;16.00;;;2.10;;
56373;SDS011;58212;47.034;7.376;2022-10-16T15:08:51;20.38;;;2.72;;
56373;SDS011;58212;47.034;7.376;2022-10-16T15:11:18;9.63;;;2.05;;
56373;SDS011;58212;47.034;7.376;2022-10-16T15:13:46;16.20;;;2.38;;
56373;SDS011;58212;47.034;7.376;2022-10-16T15:16:13;10.45;;;2.10;;
56373;SDS011;58212;47.034;7.376;2022-10-16T15:18:44;14.00;;;1.92;;
56373;SDS011;58212;47.034;7.376;2022-10-16T15:21:12;19.33;;;2.53;;